Terminal Aerodrome Forecast
Issued by NWS Charleston, WV

Current Version | Previous Version | Graphics & Text | Print | Product List | Glossary On
Versions: 1 2 3 4 5 6 7 8 9 10 11 12 13 14 15 16 17 18 19 20 21 22 23 24 25 26 27 28 29 30 31
955
FTUS41 KRLX 280253 AAA
TAFEKN
TAF AMD
KEKN 280253Z 2803/2824 VRB02KT P6SM SKC
     FM280800 VRB02KT 2SM BR SCT001
     FM281300 VRB03KT P6SM FEW002
     FM281400 VRB03KT P6SM SKC
     FM282200 17005KT P6SM SCT028=

USA.gov is the U.S. government's official web portal to all federal, state and local government web resources and services.